Mein Schiff 4 — 9HA3513 — position and weather

sailwx.info

Track history (hours):
 
Tides and Currents Weather Stations Pressure Air Temp Water Temp Dewpoint Dewpoint Depression Visibility Wind Speed Wind Dir Waves Ship Positions

Mein Schiff 4

Last reported at 2018-Jun-24 08:32 UTC. Time now 2018-Jun-24 10:48 UTC.
Position N 57°42' E 007°42'.

Length 294 m; draft 8.2 m.

Type: Passenger vessel. MMSI: 229678000.

Date/timePositionNaut miles runAvg speedWind from/ knotsBaromVisibWave heightAir tempDewpointWater temp
2018-Jun-24 08:32N 57°42' E 007°42'119.4
2018-Jun-24 08:30N 57°42' E 007°40'919.3
2018-Jun-24 08:00N 57°42' E 007°23'1019.4
2018-Jun-24 07:29N 57°43' E 007°04'919.2
2018-Jun-24 07:00N 57°43' E 006°47'1718.0
2018-Jun-24 06:05N 57°50' E 006°19'219.2
2018-Jun-24 06:00N 57°51' E 006°16'2919.1
2018-Jun-24 04:30N 58°10' E 005°35'919.2
2018-Jun-24 04:00N 58°16' E 005°21'1019.1
2018-Jun-24 03:30N 58°22' E 005°08'1019.4
2018-Jun-24 03:00N 58°30' E 004°55'919.3
2018-Jun-24 02:30N 58°36' E 004°43'1019.7
2018-Jun-24 02:00N 58°44' E 004°30'1019.3
2018-Jun-24 01:30N 58°51' E 004°18'19917.8
2018-Jun-23 14:20N 62°10' E 004°29'618.3
2018-Jun-23 14:00N 62°14' E 004°39'918.3
2018-Jun-23 13:30N 62°19' E 004°55'918.0
2018-Jun-23 13:00N 62°24' E 005°11'918.0
2018-Jun-23 12:30N 62°29' E 005°27'917.4
2018-Jun-23 11:59N 62°29' E 005°47'817.1
2018-Jun-23 11:30N 62°27' E 006°04'3 5.4
2018-Jun-23 11:00N 62°28' E 006°09'0 0.1
2018-Jun-23 10:29N 62°28' E 006°09'0 0.0
2018-Jun-23 09:59N 62°28' E 006°09'0 0.0
2018-Jun-23 09:29N 62°28' E 006°09'0 0.0
2018-Jun-23 08:59N 62°28' E 006°09'0 0.0
2018-Jun-23 08:29N 62°28' E 006°09'0 0.0
2018-Jun-23 07:59N 62°28' E 006°09'0 0.0
2018-Jun-23 07:29N 62°28' E 006°09'0 0.0
2018-Jun-23 06:59N 62°28' E 006°09'0 0.0
2018-Jun-23 06:29N 62°28' E 006°09'0 0.0
2018-Jun-23 05:59N 62°28' E 006°09'0 0.0
2018-Jun-23 05:29N 62°28' E 006°09'0 0.0
2018-Jun-23 04:59N 62°28' E 006°09'0 0.0
2018-Jun-23 04:31N 62°28' E 006°09'1 1.5
2018-Jun-23 04:00N 62°28' E 006°11'611.1
2018-Jun-23 03:30N 62°27' E 005°59'714.3
2018-Jun-23 02:59N 62°30' E 005°44'715.2
2018-Jun-23 02:30N 62°37' E 005°38'816.4
2018-Jun-23 02:00N 62°45' E 005°35'3816.3
2018-Jun-22 23:38N 63°12' E 006°35'216.7
2018-Jun-22 23:30N 63°13' E 006°40'816.8
2018-Jun-22 23:00N 63°14' E 006°58'816.8
2018-Jun-22 22:31N 63°15' E 007°17'917.3
2018-Jun-22 22:01N 63°15' E 007°36'815.9
2018-Jun-22 21:30N 63°13' E 007°53'714.3
2018-Jun-22 21:00N 63°16' E 008°07'917.9
2018-Jun-22 20:30N 63°21' E 008°22'917.7
2018-Jun-22 20:00N 63°26' E 008°40'817.3
2018-Jun-22 19:30N 63°28' E 008°58'917.4
2018-Jun-22 19:00N 63°32' E 009°16'817.1
2018-Jun-22 18:30N 63°37' E 009°32'714.0
2018-Jun-22 18:00N 63°39' E 009°47'714.6
2018-Jun-22 17:30N 63°32' E 009°53'612.8
2018-Jun-22 17:00N 63°29' E 010°04'815.1
2018-Jun-22 16:30N 63°29' E 010°21'3 5.3
2018-Jun-22 16:00N 63°26' E 010°24'0 0.3
2018-Jun-22 15:27N 63°27' E 010°24'0 0.0
2018-Jun-22 14:57N 63°27' E 010°24'0 0.0
2018-Jun-22 14:27N 63°27' E 010°24'0 0.0
2018-Jun-22 13:57N 63°27' E 010°24'0 0.0
2018-Jun-22 13:27N 63°27' E 010°24'0 0.0
2018-Jun-22 12:57N 63°27' E 010°24'0 0.0
2018-Jun-22 12:27N 63°27' E 010°24'0 0.0
2018-Jun-22 11:57N 63°27' E 010°24'0 0.0
2018-Jun-22 11:27N 63°27' E 010°24'0 0.0
2018-Jun-22 10:57N 63°27' E 010°24'0 0.0
2018-Jun-22 10:27N 63°27' E 010°24'0 0.0
2018-Jun-22 09:57N 63°27' E 010°24'0 0.0
2018-Jun-22 09:27N 63°27' E 010°24'0 0.0
2018-Jun-22 08:57N 63°27' E 010°24'0 0.0
2018-Jun-22 08:27N 63°27' E 010°24'0 0.0
2018-Jun-22 07:57N 63°27' E 010°24'0 0.0
2018-Jun-22 07:27N 63°27' E 010°24'0 0.0
2018-Jun-22 06:57N 63°27' E 010°24'0 0.0
2018-Jun-22 06:27N 63°27' E 010°24'0 0.3
2018-Jun-22 06:01N 63°27' E 010°24'610.9
2018-Jun-22 05:30N 63°28' E 010°12'815.3
2018-Jun-22 04:58N 63°30' E 009°54'817.7
2018-Jun-22 04:30N 63°38' E 009°47'713.2
2018-Jun-22 03:59N 63°37' E 009°31'714.9
2018-Jun-22 03:30N 63°38' E 009°15'611.5
2018-Jun-22 03:00N 63°44' E 009°13'713.7
2018-Jun-22 02:30N 63°50' E 009°17'713.2
2018-Jun-22 01:58N 63°57' E 009°22'613.1
2018-Jun-22 01:30N 64°02' E 009°29'713.6
2018-Jun-22 01:00N 64°08' E 009°37'713.3
2018-Jun-22 00:29N 64°14' E 009°42'713.5
2018-Jun-22 00:00N 64°21' E 009°44'22713.5
2018-Jun-21 07:15N 67°59' E 012°17'414.5
2018-Jun-21 06:59N 68°02' E 012°23'714.4
2018-Jun-21 06:30N 68°08' E 012°33'714.2
2018-Jun-21 06:00N 68°14' E 012°43'714.1
2018-Jun-21 05:30N 68°20' E 012°53'714.2
2018-Jun-21 05:00N 68°26' E 013°03'714.2
2018-Jun-21 04:29N 68°32' E 013°13'714.1
2018-Jun-21 04:00N 68°38' E 013°23'713.7
2018-Jun-21 03:30N 68°44' E 013°33'714.1
2018-Jun-21 03:00N 68°50' E 013°43'714.1
2018-Jun-21 02:30N 68°54' E 013°59'714.2
2018-Jun-21 02:00N 68°58' E 014°16'714.1
2018-Jun-21 01:30N 69°02' E 014°32'714.0
2018-Jun-21 01:00N 69°06' E 014°47'714.3
2018-Jun-21 00:30N 69°11' E 015°03'714.4
2018-Jun-21 00:00N 69°15' E 015°20'714.4
2018-Jun-20 23:30N 69°18' E 015°38'714.4
2018-Jun-20 23:00N 69°22' E 015°56'713.7
2018-Jun-20 22:30N 69°24' E 016°14'714.4
2018-Jun-20 22:00N 69°27' E 016°32'714.9
2018-Jun-20 21:30N 69°30' E 016°51'714.9
2018-Jun-20 21:00N 69°34' E 017°10'814.8
2018-Jun-20 20:29N 69°38' E 017°29'714.1
2018-Jun-20 20:00N 69°42' E 017°45'713.2
2018-Jun-20 19:30N 69°45' E 018°02'713.5
2018-Jun-20 18:59N 69°48' E 018°20'714.1
2018-Jun-20 18:30N 69°51' E 018°38'4 8.7
2018-Jun-20 18:00N 69°53' E 018°49'715.1
2018-Jun-20 17:30N 69°47' E 019°03'713.3
2018-Jun-20 17:00N 69°41' E 018°60'0 0.3
2018-Jun-20 16:30N 69°41' E 018°59'0 0.0
2018-Jun-20 16:00N 69°41' E 018°59'0 0.0
2018-Jun-20 15:30N 69°41' E 018°59'0 0.0
2018-Jun-20 15:00N 69°41' E 018°59'0 0.0
2018-Jun-20 14:30N 69°41' E 018°59'0 0.0
2018-Jun-20 14:00N 69°41' E 018°59'0 0.0
2018-Jun-20 13:30N 69°41' E 018°59'0 0.0
2018-Jun-20 13:00N 69°41' E 018°59'0 0.0
2018-Jun-20 12:30N 69°41' E 018°59'0 0.0
2018-Jun-20 12:00N 69°41' E 018°59'0 0.0
2018-Jun-20 11:30N 69°41' E 018°59'0 0.0
2018-Jun-20 11:00N 69°41' E 018°59'0 0.0
2018-Jun-20 10:30N 69°41' E 018°59'0 0.0
2018-Jun-20 10:00N 69°41' E 018°59'0 0.0
2018-Jun-20 09:30N 69°41' E 018°59'0 0.0
2018-Jun-20 09:00N 69°41' E 018°59'0 0.0
2018-Jun-20 08:30N 69°41' E 018°59'0 0.0
2018-Jun-20 08:00N 69°41' E 018°59'0 0.0
2018-Jun-20 07:30N 69°41' E 018°59'0 0.0
2018-Jun-20 07:00N 69°41' E 018°59'1 1.4
2018-Jun-20 06:30N 69°41' E 019°01'713.8
2018-Jun-20 06:00N 69°47' E 019°11'815.6
2018-Jun-20 05:30N 69°49' E 019°33'815.3
2018-Jun-20 05:00N 69°52' E 019°53'815.8
2018-Jun-20 04:30N 69°59' E 020°03'815.9
2018-Jun-20 04:00N 70°07' E 020°13'816.1
2018-Jun-20 03:30N 70°14' E 020°22'815.6
2018-Jun-20 03:00N 70°22' E 020°21'816.5
2018-Jun-20 02:30N 70°30' E 020°12'815.4
2018-Jun-20 02:00N 70°37' E 020°08'  
2018-Jun-17 03:59N 71°33' E 025°28'1019.3
2018-Jun-17 03:30N 71°25' E 025°42'1019.7
2018-Jun-17 03:00N 71°16' E 025°56'1019.3
2018-Jun-17 02:30N 71°07' E 026°10'918.0
2018-Jun-17 02:00N 70°59' E 026°15'612.6
2018-Jun-17 01:30N 70°58' E 025°56'1 1.3
2018-Jun-17 01:01N 70°59' E 025°58'0 0.0
2018-Jun-17 00:29N 70°59' E 025°58'0 0.0
2018-Jun-16 23:59N 70°59' E 025°58'0 0.0
2018-Jun-16 23:29N 70°59' E 025°58'0 0.0
2018-Jun-16 22:59N 70°59' E 025°58'0 0.0
2018-Jun-16 22:29N 70°59' E 025°58'0 0.0
2018-Jun-16 21:59N 70°59' E 025°58'0 0.0
2018-Jun-16 21:29N 70°59' E 025°58'0 0.0
2018-Jun-16 20:59N 70°59' E 025°58'0 0.0
2018-Jun-16 20:29N 70°59' E 025°58'0 0.0
2018-Jun-16 19:59N 70°59' E 025°58'0 0.0
2018-Jun-16 19:29N 70°59' E 025°58'0 0.0
2018-Jun-16 18:59N 70°59' E 025°58'0 0.0
2018-Jun-16 18:29N 70°59' E 025°58'0 0.0
2018-Jun-16 17:59N 70°59' E 025°58'0 0.0
2018-Jun-16 17:29N 70°59' E 025°58'0 0.0
2018-Jun-16 16:59N 70°59' E 025°58'0 0.0
2018-Jun-16 16:29N 70°59' E 025°58'0 0.0
2018-Jun-16 16:00N 70°59' E 025°58'0 0.0
2018-Jun-16 15:29N 70°59' E 025°58'0 0.5
2018-Jun-16 15:00N 70°59' E 025°57'3 6.5
2018-Jun-16 14:30N 70°58' E 026°07'612.1
2018-Jun-16 14:00N 71°03' E 026°18'1019.4
2018-Jun-16 13:29N 71°10' E 025°57'1020.0
2018-Jun-16 13:00N 71°13' E 025°28'1121.2
2018-Jun-16 12:30N 71°12' E 024°55'1020.5
2018-Jun-16 12:00N 71°11' E 024°23'1020.8
2018-Jun-16 11:30N 71°09' E 023°51'1121.0
2018-Jun-16 11:00N 71°07' E 023°20'1020.8
2018-Jun-16 10:30N 71°04' E 022°49'1019.7
2018-Jun-16 10:00N 71°01' E 022°20'1020.0
2018-Jun-16 09:29N 70°58' E 021°50'4119.7
2018-Jun-16 07:24N 70°41' E 019°55'819.6
2018-Jun-16 07:00N 70°38' E 019°34'1019.7
2018-Jun-16 06:30N 70°34' E 019°07'1020.3
2018-Jun-16 06:00N 70°30' E 018°40'5720.1
2018-Jun-16 03:10N 69°53' E 016°32'421.8
2018-Jun-16 03:00N 69°50' E 016°24'1122.7
2018-Jun-16 02:30N 69°42' E 015°60'1020.9
2018-Jun-16 02:00N 69°35' E 015°38'1020.6
2018-Jun-16 01:30N 69°28' E 015°17'1121.6
2018-Jun-16 01:00N 69°21' E 014°55'1121.5
2018-Jun-16 00:30N 69°13' E 014°35'1121.8
2018-Jun-16 00:01N 69°04' E 014°18'1020.2
2018-Jun-15 23:30N 68°55' E 014°05'816.5
2018-Jun-15 23:00N 68°48' E 013°53'1 2.9
2018-Jun-15 22:30N 68°47' E 013°50'2 3.9
2018-Jun-15 21:59N 68°49' E 013°47'2 4.0
2018-Jun-15 21:30N 68°51' E 013°48'4 8.4
2018-Jun-15 21:00N 68°48' E 013°39'1020.2
2018-Jun-15 20:30N 68°40' E 013°24'1019.9
2018-Jun-15 19:58N 68°31' E 013°08'1019.7
2018-Jun-15 19:29N 68°23' E 012°54'1019.9
2018-Jun-15 19:00N 68°15' E 012°39'1019.7
2018-Jun-15 18:30N 68°07' E 012°25'34319.0
2018-Jun-15 00:26N 63°01' E 006°08'818.6
2018-Jun-14 23:59N 62°53' E 006°01'1019.9
2018-Jun-14 23:29N 62°44' E 005°51'919.6
2018-Jun-14 23:00N 62°36' E 005°43'918.0
2018-Jun-14 22:30N 62°28' E 005°52'714.5
2018-Jun-14 22:00N 62°24' E 006°05'918.7
2018-Jun-14 21:30N 62°25' E 006°26'1019.6
2018-Jun-14 21:00N 62°27' E 006°46'918.0
2018-Jun-14 20:30N 62°20' E 006°57'1020.0
2018-Jun-14 19:59N 62°10' E 007°01'5 3.7
2018-Jun-14 18:34N 62°06' E 006°53'1 8.8
2018-Jun-14 18:29N 62°06' E 006°55'714.0
2018-Jun-14 17:59N 62°07' E 007°09'1 2.7
2018-Jun-14 17:27N 62°06' E 007°12'0 0.0
2018-Jun-14 16:57N 62°06' E 007°12'0 0.0
2018-Jun-14 16:27N 62°06' E 007°12'0 0.0
2018-Jun-14 15:57N 62°06' E 007°12'0 0.0
2018-Jun-14 15:27N 62°06' E 007°12'0 0.0
2018-Jun-14 14:57N 62°06' E 007°12'0 0.0
2018-Jun-14 14:27N 62°06' E 007°12'0 0.0
2018-Jun-14 13:57N 62°06' E 007°12'0 0.0
2018-Jun-14 13:27N 62°06' E 007°12'0 0.0
2018-Jun-14 12:57N 62°06' E 007°12'0 0.0
2018-Jun-14 12:27N 62°06' E 007°12'0 0.0
2018-Jun-14 11:57N 62°06' E 007°12'0 0.0
2018-Jun-14 11:27N 62°06' E 007°12'0 0.0
2018-Jun-14 10:57N 62°06' E 007°12'0 0.0
2018-Jun-14 10:27N 62°06' E 007°12'0 0.0
2018-Jun-14 09:57N 62°06' E 007°12'0 0.0
2018-Jun-14 09:27N 62°06' E 007°12'0 0.0
2018-Jun-14 08:57N 62°06' E 007°12'  
Track history (hours):
 
Tides and Currents Weather Stations Pressure Air Temp Water Temp Dewpoint Dewpoint Depression Visibility Wind Speed Wind Dir Waves Ship Positions

Mein Schiff 4

Last reported at 2018-Jun-24 08:32 UTC. Time now 2018-Jun-24 10:48 UTC.
Position N 57°42' E 007°42'.

Length 294 m; draft 8.2 m.

Type: Passenger vessel. MMSI: 229678000.

Date/timePositionNaut miles runAvg speedWind from/ knotsBaromVisibWave heightAir tempDewpointWater temp
2018-Jun-24 08:32N 57°42' E 007°42'119.4
2018-Jun-24 08:30N 57°42' E 007°40'919.3
2018-Jun-24 08:00N 57°42' E 007°23'1019.4
2018-Jun-24 07:29N 57°43' E 007°04'919.2
2018-Jun-24 07:00N 57°43' E 006°47'1718.0
2018-Jun-24 06:05N 57°50' E 006°19'219.2
2018-Jun-24 06:00N 57°51' E 006°16'2919.1
2018-Jun-24 04:30N 58°10' E 005°35'919.2
2018-Jun-24 04:00N 58°16' E 005°21'1019.1
2018-Jun-24 03:30N 58°22' E 005°08'1019.4
2018-Jun-24 03:00N 58°30' E 004°55'919.3
2018-Jun-24 02:30N 58°36' E 004°43'1019.7
2018-Jun-24 02:00N 58°44' E 004°30'1019.3
2018-Jun-24 01:30N 58°51' E 004°18'19917.8
2018-Jun-23 14:20N 62°10' E 004°29'618.3
2018-Jun-23 14:00N 62°14' E 004°39'918.3
2018-Jun-23 13:30N 62°19' E 004°55'918.0
2018-Jun-23 13:00N 62°24' E 005°11'918.0
2018-Jun-23 12:30N 62°29' E 005°27'917.4
2018-Jun-23 11:59N 62°29' E 005°47'817.1
2018-Jun-23 11:30N 62°27' E 006°04'3 5.4
2018-Jun-23 11:00N 62°28' E 006°09'0 0.1
2018-Jun-23 10:29N 62°28' E 006°09'0 0.0
2018-Jun-23 09:59N 62°28' E 006°09'0 0.0
2018-Jun-23 09:29N 62°28' E 006°09'0 0.0
2018-Jun-23 08:59N 62°28' E 006°09'0 0.0
2018-Jun-23 08:29N 62°28' E 006°09'0 0.0
2018-Jun-23 07:59N 62°28' E 006°09'0 0.0
2018-Jun-23 07:29N 62°28' E 006°09'0 0.0
2018-Jun-23 06:59N 62°28' E 006°09'0 0.0
2018-Jun-23 06:29N 62°28' E 006°09'0 0.0
2018-Jun-23 05:59N 62°28' E 006°09'0 0.0
2018-Jun-23 05:29N 62°28' E 006°09'0 0.0
2018-Jun-23 04:59N 62°28' E 006°09'0 0.0
2018-Jun-23 04:31N 62°28' E 006°09'1 1.5
2018-Jun-23 04:00N 62°28' E 006°11'611.1
2018-Jun-23 03:30N 62°27' E 005°59'714.3
2018-Jun-23 02:59N 62°30' E 005°44'715.2
2018-Jun-23 02:30N 62°37' E 005°38'816.4
2018-Jun-23 02:00N 62°45' E 005°35'3816.3
2018-Jun-22 23:38N 63°12' E 006°35'216.7
2018-Jun-22 23:30N 63°13' E 006°40'816.8
2018-Jun-22 23:00N 63°14' E 006°58'816.8
2018-Jun-22 22:31N 63°15' E 007°17'917.3
2018-Jun-22 22:01N 63°15' E 007°36'815.9
2018-Jun-22 21:30N 63°13' E 007°53'714.3
2018-Jun-22 21:00N 63°16' E 008°07'917.9
2018-Jun-22 20:30N 63°21' E 008°22'917.7
2018-Jun-22 20:00N 63°26' E 008°40'817.3
2018-Jun-22 19:30N 63°28' E 008°58'917.4
2018-Jun-22 19:00N 63°32' E 009°16'817.1
2018-Jun-22 18:30N 63°37' E 009°32'714.0
2018-Jun-22 18:00N 63°39' E 009°47'714.6
2018-Jun-22 17:30N 63°32' E 009°53'612.8
2018-Jun-22 17:00N 63°29' E 010°04'815.1
2018-Jun-22 16:30N 63°29' E 010°21'3 5.3
2018-Jun-22 16:00N 63°26' E 010°24'0 0.3
2018-Jun-22 15:27N 63°27' E 010°24'0 0.0
2018-Jun-22 14:57N 63°27' E 010°24'0 0.0
2018-Jun-22 14:27N 63°27' E 010°24'0 0.0
2018-Jun-22 13:57N 63°27' E 010°24'0 0.0
2018-Jun-22 13:27N 63°27' E 010°24'0 0.0
2018-Jun-22 12:57N 63°27' E 010°24'0 0.0
2018-Jun-22 12:27N 63°27' E 010°24'0 0.0
2018-Jun-22 11:57N 63°27' E 010°24'0 0.0
2018-Jun-22 11:27N 63°27' E 010°24'0 0.0
2018-Jun-22 10:57N 63°27' E 010°24'0 0.0
2018-Jun-22 10:27N 63°27' E 010°24'0 0.0
2018-Jun-22 09:57N 63°27' E 010°24'0 0.0
2018-Jun-22 09:27N 63°27' E 010°24'0 0.0
2018-Jun-22 08:57N 63°27' E 010°24'0 0.0
2018-Jun-22 08:27N 63°27' E 010°24'0 0.0
2018-Jun-22 07:57N 63°27' E 010°24'0 0.0
2018-Jun-22 07:27N 63°27' E 010°24'0 0.0
2018-Jun-22 06:57N 63°27' E 010°24'0 0.0
2018-Jun-22 06:27N 63°27' E 010°24'0 0.3
2018-Jun-22 06:01N 63°27' E 010°24'610.9
2018-Jun-22 05:30N 63°28' E 010°12'815.3
2018-Jun-22 04:58N 63°30' E 009°54'817.7
2018-Jun-22 04:30N 63°38' E 009°47'713.2
2018-Jun-22 03:59N 63°37' E 009°31'714.9
2018-Jun-22 03:30N 63°38' E 009°15'611.5
2018-Jun-22 03:00N 63°44' E 009°13'713.7
2018-Jun-22 02:30N 63°50' E 009°17'713.2
2018-Jun-22 01:58N 63°57' E 009°22'613.1
2018-Jun-22 01:30N 64°02' E 009°29'713.6
2018-Jun-22 01:00N 64°08' E 009°37'713.3
2018-Jun-22 00:29N 64°14' E 009°42'713.5
2018-Jun-22 00:00N 64°21' E 009°44'22713.5
2018-Jun-21 07:15N 67°59' E 012°17'414.5
2018-Jun-21 06:59N 68°02' E 012°23'714.4
2018-Jun-21 06:30N 68°08' E 012°33'714.2
2018-Jun-21 06:00N 68°14' E 012°43'714.1
2018-Jun-21 05:30N 68°20' E 012°53'714.2
2018-Jun-21 05:00N 68°26' E 013°03'714.2
2018-Jun-21 04:29N 68°32' E 013°13'714.1
2018-Jun-21 04:00N 68°38' E 013°23'713.7
2018-Jun-21 03:30N 68°44' E 013°33'714.1
2018-Jun-21 03:00N 68°50' E 013°43'714.1
2018-Jun-21 02:30N 68°54' E 013°59'714.2
2018-Jun-21 02:00N 68°58' E 014°16'714.1
2018-Jun-21 01:30N 69°02' E 014°32'714.0
2018-Jun-21 01:00N 69°06' E 014°47'714.3
2018-Jun-21 00:30N 69°11' E 015°03'714.4
2018-Jun-21 00:00N 69°15' E 015°20'714.4
2018-Jun-20 23:30N 69°18' E 015°38'714.4
2018-Jun-20 23:00N 69°22' E 015°56'713.7
2018-Jun-20 22:30N 69°24' E 016°14'714.4
2018-Jun-20 22:00N 69°27' E 016°32'714.9
2018-Jun-20 21:30N 69°30' E 016°51'714.9
2018-Jun-20 21:00N 69°34' E 017°10'814.8
2018-Jun-20 20:29N 69°38' E 017°29'714.1
2018-Jun-20 20:00N 69°42' E 017°45'713.2
2018-Jun-20 19:30N 69°45' E 018°02'713.5
2018-Jun-20 18:59N 69°48' E 018°20'714.1
2018-Jun-20 18:30N 69°51' E 018°38'4 8.7
2018-Jun-20 18:00N 69°53' E 018°49'715.1
2018-Jun-20 17:30N 69°47' E 019°03'713.3
2018-Jun-20 17:00N 69°41' E 018°60'0 0.3
2018-Jun-20 16:30N 69°41' E 018°59'0 0.0
2018-Jun-20 16:00N 69°41' E 018°59'0 0.0
2018-Jun-20 15:30N 69°41' E 018°59'0 0.0
2018-Jun-20 15:00N 69°41' E 018°59'0 0.0
2018-Jun-20 14:30N 69°41' E 018°59'0 0.0
2018-Jun-20 14:00N 69°41' E 018°59'0 0.0
2018-Jun-20 13:30N 69°41' E 018°59'0 0.0
2018-Jun-20 13:00N 69°41' E 018°59'0 0.0
2018-Jun-20 12:30N 69°41' E 018°59'0 0.0
2018-Jun-20 12:00N 69°41' E 018°59'0 0.0
2018-Jun-20 11:30N 69°41' E 018°59'0 0.0
2018-Jun-20 11:00N 69°41' E 018°59'0 0.0
2018-Jun-20 10:30N 69°41' E 018°59'0 0.0
2018-Jun-20 10:00N 69°41' E 018°59'0 0.0
2018-Jun-20 09:30N 69°41' E 018°59'0 0.0
2018-Jun-20 09:00N 69°41' E 018°59'0 0.0
2018-Jun-20 08:30N 69°41' E 018°59'0 0.0
2018-Jun-20 08:00N 69°41' E 018°59'0 0.0
2018-Jun-20 07:30N 69°41' E 018°59'0 0.0
2018-Jun-20 07:00N 69°41' E 018°59'1 1.4
2018-Jun-20 06:30N 69°41' E 019°01'713.8
2018-Jun-20 06:00N 69°47' E 019°11'815.6
2018-Jun-20 05:30N 69°49' E 019°33'815.3
2018-Jun-20 05:00N 69°52' E 019°53'815.8
2018-Jun-20 04:30N 69°59' E 020°03'815.9
2018-Jun-20 04:00N 70°07' E 020°13'816.1
2018-Jun-20 03:30N 70°14' E 020°22'815.6
2018-Jun-20 03:00N 70°22' E 020°21'816.5
2018-Jun-20 02:30N 70°30' E 020°12'815.4
2018-Jun-20 02:00N 70°37' E 020°08'  
2018-Jun-17 03:59N 71°33' E 025°28'1019.3
2018-Jun-17 03:30N 71°25' E 025°42'1019.7
2018-Jun-17 03:00N 71°16' E 025°56'1019.3
2018-Jun-17 02:30N 71°07' E 026°10'918.0
2018-Jun-17 02:00N 70°59' E 026°15'612.6
2018-Jun-17 01:30N 70°58' E 025°56'1 1.3
2018-Jun-17 01:01N 70°59' E 025°58'0 0.0
2018-Jun-17 00:29N 70°59' E 025°58'0 0.0
2018-Jun-16 23:59N 70°59' E 025°58'0 0.0
2018-Jun-16 23:29N 70°59' E 025°58'0 0.0
2018-Jun-16 22:59N 70°59' E 025°58'0 0.0
2018-Jun-16 22:29N 70°59' E 025°58'0 0.0
2018-Jun-16 21:59N 70°59' E 025°58'0 0.0
2018-Jun-16 21:29N 70°59' E 025°58'0 0.0
2018-Jun-16 20:59N 70°59' E 025°58'0 0.0
2018-Jun-16 20:29N 70°59' E 025°58'0 0.0
2018-Jun-16 19:59N 70°59' E 025°58'0 0.0
2018-Jun-16 19:29N 70°59' E 025°58'0 0.0
2018-Jun-16 18:59N 70°59' E 025°58'0 0.0
2018-Jun-16 18:29N 70°59' E 025°58'0 0.0
2018-Jun-16 17:59N 70°59' E 025°58'0 0.0
2018-Jun-16 17:29N 70°59' E 025°58'0 0.0
2018-Jun-16 16:59N 70°59' E 025°58'0 0.0
2018-Jun-16 16:29N 70°59' E 025°58'0 0.0
2018-Jun-16 16:00N 70°59' E 025°58'0 0.0
2018-Jun-16 15:29N 70°59' E 025°58'0 0.5
2018-Jun-16 15:00N 70°59' E 025°57'3 6.5
2018-Jun-16 14:30N 70°58' E 026°07'612.1
2018-Jun-16 14:00N 71°03' E 026°18'1019.4
2018-Jun-16 13:29N 71°10' E 025°57'1020.0
2018-Jun-16 13:00N 71°13' E 025°28'1121.2
2018-Jun-16 12:30N 71°12' E 024°55'1020.5
2018-Jun-16 12:00N 71°11' E 024°23'1020.8
2018-Jun-16 11:30N 71°09' E 023°51'1121.0
2018-Jun-16 11:00N 71°07' E 023°20'1020.8
2018-Jun-16 10:30N 71°04' E 022°49'1019.7
2018-Jun-16 10:00N 71°01' E 022°20'1020.0
2018-Jun-16 09:29N 70°58' E 021°50'4119.7
2018-Jun-16 07:24N 70°41' E 019°55'819.6
2018-Jun-16 07:00N 70°38' E 019°34'1019.7
2018-Jun-16 06:30N 70°34' E 019°07'1020.3
2018-Jun-16 06:00N 70°30' E 018°40'5720.1
2018-Jun-16 03:10N 69°53' E 016°32'421.8
2018-Jun-16 03:00N 69°50' E 016°24'1122.7
2018-Jun-16 02:30N 69°42' E 015°60'1020.9
2018-Jun-16 02:00N 69°35' E 015°38'1020.6
2018-Jun-16 01:30N 69°28' E 015°17'1121.6
2018-Jun-16 01:00N 69°21' E 014°55'1121.5
2018-Jun-16 00:30N 69°13' E 014°35'1121.8
2018-Jun-16 00:01N 69°04' E 014°18'1020.2
2018-Jun-15 23:30N 68°55' E 014°05'816.5
2018-Jun-15 23:00N 68°48' E 013°53'1 2.9
2018-Jun-15 22:30N 68°47' E 013°50'2 3.9
2018-Jun-15 21:59N 68°49' E 013°47'2 4.0
2018-Jun-15 21:30N 68°51' E 013°48'4 8.4
2018-Jun-15 21:00N 68°48' E 013°39'1020.2
2018-Jun-15 20:30N 68°40' E 013°24'1019.9
2018-Jun-15 19:58N 68°31' E 013°08'1019.7
2018-Jun-15 19:29N 68°23' E 012°54'1019.9
2018-Jun-15 19:00N 68°15' E 012°39'1019.7
2018-Jun-15 18:30N 68°07' E 012°25'34319.0
2018-Jun-15 00:26N 63°01' E 006°08'818.6
2018-Jun-14 23:59N 62°53' E 006°01'1019.9
2018-Jun-14 23:29N 62°44' E 005°51'919.6
2018-Jun-14 23:00N 62°36' E 005°43'918.0
2018-Jun-14 22:30N 62°28' E 005°52'714.5
2018-Jun-14 22:00N 62°24' E 006°05'918.7
2018-Jun-14 21:30N 62°25' E 006°26'1019.6
2018-Jun-14 21:00N 62°27' E 006°46'918.0
2018-Jun-14 20:30N 62°20' E 006°57'1020.0
2018-Jun-14 19:59N 62°10' E 007°01'5 3.7
2018-Jun-14 18:34N 62°06' E 006°53'1 8.8
2018-Jun-14 18:29N 62°06' E 006°55'714.0
2018-Jun-14 17:59N 62°07' E 007°09'1 2.7
2018-Jun-14 17:27N 62°06' E 007°12'0 0.0
2018-Jun-14 16:57N 62°06' E 007°12'0 0.0
2018-Jun-14 16:27N 62°06' E 007°12'0 0.0
2018-Jun-14 15:57N 62°06' E 007°12'0 0.0
2018-Jun-14 15:27N 62°06' E 007°12'0 0.0
2018-Jun-14 14:57N 62°06' E 007°12'0 0.0
2018-Jun-14 14:27N 62°06' E 007°12'0 0.0
2018-Jun-14 13:57N 62°06' E 007°12'0 0.0
2018-Jun-14 13:27N 62°06' E 007°12'0 0.0
2018-Jun-14 12:57N 62°06' E 007°12'0 0.0
2018-Jun-14 12:27N 62°06' E 007°12'0 0.0
2018-Jun-14 11:57N 62°06' E 007°12'0 0.0
2018-Jun-14 11:27N 62°06' E 007°12'0 0.0
2018-Jun-14 10:57N 62°06' E 007°12'0 0.0
2018-Jun-14 10:27N 62°06' E 007°12'0 0.0
2018-Jun-14 09:57N 62°06' E 007°12'0 0.0
2018-Jun-14 09:27N 62°06' E 007°12'0 0.0
2018-Jun-14 08:57N 62°06' E 007°12'  

Dump ship's entire track history